sensor_id;sensor_type;location;lat;lon;timestamp;P1;durP1;ratioP1;P2;durP2;ratioP2
12871;SDS011;6504;53.766;9.626;2023-06-22T00:00:33;6.87;;;6.27;;
12871;SDS011;6504;53.766;9.626;2023-06-22T00:03:01;6.43;;;5.83;;
12871;SDS011;6504;53.766;9.626;2023-06-22T00:05:29;5.77;;;5.27;;
12871;SDS011;6504;53.766;9.626;2023-06-22T00:08:01;5.63;;;4.60;;
12871;SDS011;6504;53.766;9.626;2023-06-22T00:10:30;6.03;;;5.53;;
12871;SDS011;6504;53.766;9.626;2023-06-22T00:12:58;5.17;;;4.77;;
12871;SDS011;6504;53.766;9.626;2023-06-22T00:15:27;4.93;;;4.43;;
12871;SDS011;6504;53.766;9.626;2023-06-22T00:17:55;6.00;;;5.50;;
12871;SDS011;6504;53.766;9.626;2023-06-22T00:20:25;6.30;;;5.70;;
12871;SDS011;6504;53.766;9.626;2023-06-22T00:22:56;6.00;;;5.40;;
12871;SDS011;6504;53.766;9.626;2023-06-22T00:25:26;5.87;;;5.37;;
12871;SDS011;6504;53.766;9.626;2023-06-22T00:27:54;6.37;;;5.70;;
12871;SDS011;6504;53.766;9.626;2023-06-22T00:30:23;6.87;;;6.17;;
12871;SDS011;6504;53.766;9.626;2023-06-22T00:32:51;6.63;;;6.03;;
12871;SDS011;6504;53.766;9.626;2023-06-22T00:35:20;6.77;;;6.17;;
12871;SDS011;6504;53.766;9.626;2023-06-22T00:37:49;6.70;;;6.00;;
12871;SDS011;6504;53.766;9.626;2023-06-22T00:40:19;7.30;;;6.60;;
12871;SDS011;6504;53.766;9.626;2023-06-22T00:42:48;7.17;;;6.10;;
12871;SDS011;6504;53.766;9.626;2023-06-22T00:45:16;7.10;;;6.40;;
12871;SDS011;6504;53.766;9.626;2023-06-22T00:47:44;7.63;;;6.93;;
12871;SDS011;6504;53.766;9.626;2023-06-22T00:50:13;7.90;;;7.30;;
12871;SDS011;6504;53.766;9.626;2023-06-22T00:52:48;8.00;;;7.30;;
12871;SDS011;6504;53.766;9.626;2023-06-22T00:55:19;9.77;;;8.87;;
12871;SDS011;6504;53.766;9.626;2023-06-22T00:57:48;8.77;;;8.07;;
12871;SDS011;6504;53.766;9.626;2023-06-22T01:00:17;8.60;;;7.90;;
12871;SDS011;6504;53.766;9.626;2023-06-22T01:02:46;9.37;;;8.47;;
12871;SDS011;6504;53.766;9.626;2023-06-22T01:05:18;8.47;;;7.77;;
12871;SDS011;6504;53.766;9.626;2023-06-22T01:08:05;7.93;;;7.23;;
12871;SDS011;6504;53.766;9.626;2023-06-22T01:10:41;8.90;;;8.10;;
12871;SDS011;6504;53.766;9.626;2023-06-22T01:13:16;9.33;;;8.53;;
12871;SDS011;6504;53.766;9.626;2023-06-22T01:15:53;9.17;;;8.37;;
12871;SDS011;6504;53.766;9.626;2023-06-22T01:18:28;9.33;;;8.50;;
12871;SDS011;6504;53.766;9.626;2023-06-22T01:20:59;8.83;;;7.47;;
12871;SDS011;6504;53.766;9.626;2023-06-22T01:23:30;8.60;;;7.90;;
12871;SDS011;6504;53.766;9.626;2023-06-22T01:26:12;8.90;;;8.17;;
12871;SDS011;6504;53.766;9.626;2023-06-22T01:28:47;9.80;;;8.90;;
12871;SDS011;6504;53.766;9.626;2023-06-22T01:31:18;10.07;;;9.17;;
12871;SDS011;6504;53.766;9.626;2023-06-22T01:33:49;8.83;;;8.03;;
12871;SDS011;6504;53.766;9.626;2023-06-22T01:36:18;8.97;;;8.17;;
12871;SDS011;6504;53.766;9.626;2023-06-22T01:38:48;9.33;;;8.43;;
12871;SDS011;6504;53.766;9.626;2023-06-22T01:41:17;10.03;;;9.13;;
12871;SDS011;6504;53.766;9.626;2023-06-22T01:43:48;9.60;;;8.80;;
12871;SDS011;6504;53.766;9.626;2023-06-22T01:46:17;9.47;;;8.57;;
12871;SDS011;6504;53.766;9.626;2023-06-22T01:48:46;10.17;;;9.27;;
12871;SDS011;6504;53.766;9.626;2023-06-22T01:51:15;9.63;;;8.63;;
12871;SDS011;6504;53.766;9.626;2023-06-22T01:53:43;8.93;;;8.07;;
12871;SDS011;6504;53.766;9.626;2023-06-22T01:56:12;8.70;;;8.00;;
12871;SDS011;6504;53.766;9.626;2023-06-22T01:58:41;9.27;;;8.47;;
12871;SDS011;6504;53.766;9.626;2023-06-22T02:01:16;10.43;;;9.50;;
12871;SDS011;6504;53.766;9.626;2023-06-22T02:03:49;10.70;;;9.70;;
12871;SDS011;6504;53.766;9.626;2023-06-22T02:06:21;10.67;;;9.77;;
12871;SDS011;6504;53.766;9.626;2023-06-22T02:08:55;10.10;;;9.30;;
12871;SDS011;6504;53.766;9.626;2023-06-22T02:11:26;8.07;;;7.37;;
12871;SDS011;6504;53.766;9.626;2023-06-22T02:13:56;7.80;;;7.10;;
12871;SDS011;6504;53.766;9.626;2023-06-22T02:16:27;6.67;;;6.07;;
12871;SDS011;6504;53.766;9.626;2023-06-22T02:18:56;7.33;;;6.73;;
12871;SDS011;6504;53.766;9.626;2023-06-22T02:21:29;10.00;;;9.17;;
12871;SDS011;6504;53.766;9.626;2023-06-22T02:23:58;9.90;;;9.10;;
12871;SDS011;6504;53.766;9.626;2023-06-22T02:26:26;9.30;;;8.50;;
12871;SDS011;6504;53.766;9.626;2023-06-22T02:28:55;9.03;;;8.23;;
12871;SDS011;6504;53.766;9.626;2023-06-22T02:31:23;9.17;;;8.37;;
12871;SDS011;6504;53.766;9.626;2023-06-22T02:33:59;9.13;;;8.23;;
12871;SDS011;6504;53.766;9.626;2023-06-22T02:36:27;9.20;;;8.40;;
12871;SDS011;6504;53.766;9.626;2023-06-22T02:38:57;8.67;;;7.97;;
12871;SDS011;6504;53.766;9.626;2023-06-22T02:41:27;9.93;;;9.00;;
12871;SDS011;6504;53.766;9.626;2023-06-22T02:43:55;9.27;;;8.47;;
12871;SDS011;6504;53.766;9.626;2023-06-22T02:46:23;9.10;;;8.30;;
12871;SDS011;6504;53.766;9.626;2023-06-22T02:48:51;9.67;;;8.77;;
12871;SDS011;6504;53.766;9.626;2023-06-22T02:51:20;10.63;;;9.73;;
12871;SDS011;6504;53.766;9.626;2023-06-22T02:53:49;10.47;;;9.57;;
12871;SDS011;6504;53.766;9.626;2023-06-22T02:56:18;10.33;;;9.43;;
12871;SDS011;6504;53.766;9.626;2023-06-22T02:58:51;10.23;;;9.33;;
12871;SDS011;6504;53.766;9.626;2023-06-22T03:01:19;12.33;;;11.33;;
12871;SDS011;6504;53.766;9.626;2023-06-22T03:03:51;11.57;;;10.57;;
12871;SDS011;6504;53.766;9.626;2023-06-22T03:06:20;11.87;;;10.80;;
12871;SDS011;6504;53.766;9.626;2023-06-22T03:08:50;11.97;;;10.87;;
12871;SDS011;6504;53.766;9.626;2023-06-22T03:11:18;11.17;;;10.17;;
12871;SDS011;6504;53.766;9.626;2023-06-22T03:13:46;11.93;;;10.90;;
12871;SDS011;6504;53.766;9.626;2023-06-22T03:16:14;12.27;;;11.17;;
12871;SDS011;6504;53.766;9.626;2023-06-22T03:18:42;11.37;;;10.27;;
12871;SDS011;6504;53.766;9.626;2023-06-22T03:21:10;11.33;;;10.33;;
12871;SDS011;6504;53.766;9.626;2023-06-22T03:23:40;11.53;;;10.53;;
12871;SDS011;6504;53.766;9.626;2023-06-22T03:26:08;10.40;;;9.50;;
12871;SDS011;6504;53.766;9.626;2023-06-22T03:28:37;11.43;;;10.23;;
12871;SDS011;6504;53.766;9.626;2023-06-22T03:31:05;10.93;;;9.93;;
12871;SDS011;6504;53.766;9.626;2023-06-22T03:33:34;11.83;;;10.63;;
12871;SDS011;6504;53.766;9.626;2023-06-22T03:36:02;10.60;;;9.67;;
12871;SDS011;6504;53.766;9.626;2023-06-22T03:38:30;11.73;;;9.73;;
12871;SDS011;6504;53.766;9.626;2023-06-22T03:41:01;11.50;;;10.40;;
12871;SDS011;6504;53.766;9.626;2023-06-22T03:43:29;10.83;;;9.73;;
12871;SDS011;6504;53.766;9.626;2023-06-22T03:45:57;10.60;;;9.60;;
12871;SDS011;6504;53.766;9.626;2023-06-22T03:48:25;9.73;;;8.83;;
12871;SDS011;6504;53.766;9.626;2023-06-22T03:50:53;8.50;;;7.80;;
12871;SDS011;6504;53.766;9.626;2023-06-22T03:53:21;8.07;;;7.37;;
12871;SDS011;6504;53.766;9.626;2023-06-22T03:55:49;10.37;;;9.40;;
12871;SDS011;6504;53.766;9.626;2023-06-22T03:58:20;10.37;;;9.43;;
12871;SDS011;6504;53.766;9.626;2023-06-22T04:00:49;11.13;;;10.10;;
12871;SDS011;6504;53.766;9.626;2023-06-22T04:03:18;11.10;;;10.10;;
12871;SDS011;6504;53.766;9.626;2023-06-22T04:05:47;11.80;;;10.63;;
12871;SDS011;6504;53.766;9.626;2023-06-22T04:08:15;12.30;;;11.10;;
12871;SDS011;6504;53.766;9.626;2023-06-22T04:10:43;11.73;;;10.63;;
12871;SDS011;6504;53.766;9.626;2023-06-22T04:13:11;11.60;;;10.50;;
12871;SDS011;6504;53.766;9.626;2023-06-22T04:15:41;11.20;;;10.30;;
12871;SDS011;6504;53.766;9.626;2023-06-22T04:18:09;12.07;;;10.97;;
12871;SDS011;6504;53.766;9.626;2023-06-22T04:20:37;12.57;;;11.47;;
12871;SDS011;6504;53.766;9.626;2023-06-22T04:23:05;12.60;;;11.40;;
12871;SDS011;6504;53.766;9.626;2023-06-22T04:25:33;12.27;;;11.17;;
12871;SDS011;6504;53.766;9.626;2023-06-22T04:28:01;12.93;;;11.83;;
12871;SDS011;6504;53.766;9.626;2023-06-22T04:30:32;13.17;;;11.97;;
12871;SDS011;6504;53.766;9.626;2023-06-22T04:33:02;11.53;;;10.43;;
12871;SDS011;6504;53.766;9.626;2023-06-22T04:35:30;11.47;;;10.37;;
12871;SDS011;6504;53.766;9.626;2023-06-22T04:37:58;12.07;;;10.87;;
12871;SDS011;6504;53.766;9.626;2023-06-22T04:40:26;12.57;;;11.37;;
12871;SDS011;6504;53.766;9.626;2023-06-22T04:42:54;12.27;;;10.97;;
12871;SDS011;6504;53.766;9.626;2023-06-22T04:45:22;12.53;;;11.33;;
12871;SDS011;6504;53.766;9.626;2023-06-22T04:47:51;11.80;;;10.57;;
12871;SDS011;6504;53.766;9.626;2023-06-22T04:50:20;11.30;;;10.20;;
12871;SDS011;6504;53.766;9.626;2023-06-22T04:52:50;11.20;;;10.03;;
12871;SDS011;6504;53.766;9.626;2023-06-22T04:55:19;10.77;;;9.77;;
12871;SDS011;6504;53.766;9.626;2023-06-22T04:57:48;12.03;;;10.83;;
12871;SDS011;6504;53.766;9.626;2023-06-22T05:00:16;11.63;;;10.53;;
12871;SDS011;6504;53.766;9.626;2023-06-22T05:02:49;9.30;;;8.50;;
12871;SDS011;6504;53.766;9.626;2023-06-22T05:05:25;8.97;;;8.07;;
12871;SDS011;6504;53.766;9.626;2023-06-22T05:07:53;12.47;;;10.97;;
12871;SDS011;6504;53.766;9.626;2023-06-22T05:10:26;11.77;;;10.57;;
12871;SDS011;6504;53.766;9.626;2023-06-22T05:12:57;12.30;;;11.10;;
12871;SDS011;6504;53.766;9.626;2023-06-22T05:15:25;12.07;;;10.97;;
12871;SDS011;6504;53.766;9.626;2023-06-22T05:17:56;9.60;;;8.80;;
12871;SDS011;6504;53.766;9.626;2023-06-22T05:20:26;10.50;;;9.27;;
12871;SDS011;6504;53.766;9.626;2023-06-22T05:22:54;11.23;;;10.03;;
12871;SDS011;6504;53.766;9.626;2023-06-22T05:25:22;10.80;;;9.80;;
12871;SDS011;6504;53.766;9.626;2023-06-22T05:27:51;11.97;;;10.30;;
12871;SDS011;6504;53.766;9.626;2023-06-22T05:30:19;12.03;;;10.93;;
12871;SDS011;6504;53.766;9.626;2023-06-22T05:32:51;11.17;;;9.67;;
12871;SDS011;6504;53.766;9.626;2023-06-22T05:35:19;10.10;;;9.20;;
12871;SDS011;6504;53.766;9.626;2023-06-22T05:37:48;9.97;;;8.97;;
12871;SDS011;6504;53.766;9.626;2023-06-22T05:40:16;10.60;;;9.60;;
12871;SDS011;6504;53.766;9.626;2023-06-22T05:42:45;8.87;;;7.97;;
12871;SDS011;6504;53.766;9.626;2023-06-22T05:45:13;7.93;;;7.20;;
12871;SDS011;6504;53.766;9.626;2023-06-22T05:47:41;7.17;;;6.47;;
12871;SDS011;6504;53.766;9.626;2023-06-22T05:50:09;9.17;;;8.30;;
12871;SDS011;6504;53.766;9.626;2023-06-22T05:52:38;12.13;;;11.03;;
12871;SDS011;6504;53.766;9.626;2023-06-22T05:55:08;11.33;;;10.27;;
12871;SDS011;6504;53.766;9.626;2023-06-22T05:57:36;11.20;;;10.10;;
12871;SDS011;6504;53.766;9.626;2023-06-22T06:00:05;10.83;;;9.73;;
12871;SDS011;6504;53.766;9.626;2023-06-22T06:02:37;8.80;;;8.00;;
12871;SDS011;6504;53.766;9.626;2023-06-22T06:05:10;9.67;;;8.87;;
12871;SDS011;6504;53.766;9.626;2023-06-22T06:07:40;12.73;;;11.53;;
12871;SDS011;6504;53.766;9.626;2023-06-22T06:10:09;11.00;;;10.00;;
12871;SDS011;6504;53.766;9.626;2023-06-22T06:12:37;12.03;;;9.87;;
12871;SDS011;6504;53.766;9.626;2023-06-22T06:15:06;8.20;;;7.40;;
12871;SDS011;6504;53.766;9.626;2023-06-22T06:17:44;8.53;;;7.77;;
12871;SDS011;6504;53.766;9.626;2023-06-22T06:20:13;10.63;;;9.70;;
12871;SDS011;6504;53.766;9.626;2023-06-22T06:22:41;10.30;;;9.30;;
12871;SDS011;6504;53.766;9.626;2023-06-22T06:25:11;10.40;;;9.40;;
12871;SDS011;6504;53.766;9.626;2023-06-22T06:27:44;11.30;;;10.20;;
12871;SDS011;6504;53.766;9.626;2023-06-22T06:30:14;11.40;;;10.20;;
12871;SDS011;6504;53.766;9.626;2023-06-22T06:32:43;10.17;;;9.13;;
12871;SDS011;6504;53.766;9.626;2023-06-22T06:35:13;9.67;;;8.27;;
12871;SDS011;6504;53.766;9.626;2023-06-22T06:37:42;9.50;;;8.63;;
12871;SDS011;6504;53.766;9.626;2023-06-22T06:40:13;12.47;;;10.07;;
12871;SDS011;6504;53.766;9.626;2023-06-22T06:42:42;11.70;;;8.13;;
12871;SDS011;6504;53.766;9.626;2023-06-22T06:45:11;11.03;;;9.40;;
12871;SDS011;6504;53.766;9.626;2023-06-22T06:47:40;9.20;;;8.40;;
12871;SDS011;6504;53.766;9.626;2023-06-22T06:50:08;10.03;;;9.13;;
12871;SDS011;6504;53.766;9.626;2023-06-22T06:52:37;9.60;;;8.73;;
12871;SDS011;6504;53.766;9.626;2023-06-22T06:55:06;9.30;;;8.40;;
12871;SDS011;6504;53.766;9.626;2023-06-22T06:57:39;9.23;;;8.43;;
12871;SDS011;6504;53.766;9.626;2023-06-22T07:00:09;9.00;;;8.03;;
12871;SDS011;6504;53.766;9.626;2023-06-22T07:02:41;9.17;;;8.37;;
12871;SDS011;6504;53.766;9.626;2023-06-22T07:05:10;9.20;;;8.40;;
12871;SDS011;6504;53.766;9.626;2023-06-22T07:07:39;8.90;;;8.00;;
12871;SDS011;6504;53.766;9.626;2023-06-22T07:10:09;8.77;;;7.93;;
12871;SDS011;6504;53.766;9.626;2023-06-22T07:12:37;9.43;;;8.53;;
12871;SDS011;6504;53.766;9.626;2023-06-22T07:15:07;8.77;;;7.47;;
12871;SDS011;6504;53.766;9.626;2023-06-22T07:17:37;8.57;;;7.77;;
12871;SDS011;6504;53.766;9.626;2023-06-22T07:20:07;9.77;;;8.07;;
12871;SDS011;6504;53.766;9.626;2023-06-22T07:22:39;9.03;;;7.70;;
12871;SDS011;6504;53.766;9.626;2023-06-22T07:25:08;7.57;;;6.87;;
12871;SDS011;6504;53.766;9.626;2023-06-22T07:27:44;8.77;;;6.33;;
12871;SDS011;6504;53.766;9.626;2023-06-22T07:30:14;6.60;;;5.60;;
12871;SDS011;6504;53.766;9.626;2023-06-22T07:32:42;6.67;;;6.03;;
12871;SDS011;6504;53.766;9.626;2023-06-22T07:35:10;6.23;;;5.63;;
12871;SDS011;6504;53.766;9.626;2023-06-22T07:37:38;4.97;;;4.47;;
12871;SDS011;6504;53.766;9.626;2023-06-22T07:40:07;5.20;;;4.70;;
12871;SDS011;6504;53.766;9.626;2023-06-22T07:42:36;5.53;;;4.43;;
12871;SDS011;6504;53.766;9.626;2023-06-22T07:45:06;6.43;;;5.43;;
12871;SDS011;6504;53.766;9.626;2023-06-22T07:47:35;6.93;;;5.33;;
12871;SDS011;6504;53.766;9.626;2023-06-22T07:50:03;5.73;;;4.37;;
12871;SDS011;6504;53.766;9.626;2023-06-22T07:52:32;5.67;;;4.37;;
12871;SDS011;6504;53.766;9.626;2023-06-22T07:55:00;9.23;;;4.67;;
12871;SDS011;6504;53.766;9.626;2023-06-22T07:57:29;4.97;;;4.03;;
12871;SDS011;6504;53.766;9.626;2023-06-22T08:00:00;4.77;;;4.23;;
12871;SDS011;6504;53.766;9.626;2023-06-22T08:02:39;5.90;;;4.30;;
12871;SDS011;6504;53.766;9.626;2023-06-22T08:05:08;3.93;;;3.10;;
12871;SDS011;6504;53.766;9.626;2023-06-22T08:07:47;5.53;;;3.57;;
12871;SDS011;6504;53.766;9.626;2023-06-22T08:10:16;4.33;;;3.40;;
12871;SDS011;6504;53.766;9.626;2023-06-22T08:12:46;4.13;;;3.70;;
12871;SDS011;6504;53.766;9.626;2023-06-22T08:15:14;3.80;;;3.50;;
12871;SDS011;6504;53.766;9.626;2023-06-22T08:17:44;4.00;;;3.30;;
12871;SDS011;6504;53.766;9.626;2023-06-22T08:20:13;3.70;;;3.40;;
12871;SDS011;6504;53.766;9.626;2023-06-22T08:22:41;3.30;;;3.00;;
12871;SDS011;6504;53.766;9.626;2023-06-22T08:25:10;5.30;;;3.60;;
12871;SDS011;6504;53.766;9.626;2023-06-22T08:27:39;3.80;;;2.70;;
12871;SDS011;6504;53.766;9.626;2023-06-22T08:30:09;3.60;;;2.60;;
12871;SDS011;6504;53.766;9.626;2023-06-22T08:32:38;4.00;;;3.00;;
12871;SDS011;6504;53.766;9.626;2023-06-22T08:35:08;3.77;;;2.40;;
12871;SDS011;6504;53.766;9.626;2023-06-22T08:37:36;3.47;;;2.30;;
12871;SDS011;6504;53.766;9.626;2023-06-22T08:40:06;2.47;;;2.27;;
12871;SDS011;6504;53.766;9.626;2023-06-22T08:42:37;2.43;;;2.23;;
12871;SDS011;6504;53.766;9.626;2023-06-22T08:45:08;2.63;;;2.10;;
12871;SDS011;6504;53.766;9.626;2023-06-22T08:47:37;2.90;;;2.37;;
12871;SDS011;6504;53.766;9.626;2023-06-22T08:50:06;2.53;;;2.33;;
12871;SDS011;6504;53.766;9.626;2023-06-22T08:52:36;2.50;;;2.27;;
12871;SDS011;6504;53.766;9.626;2023-06-22T08:55:07;2.80;;;2.20;;
12871;SDS011;6504;53.766;9.626;2023-06-22T08:57:36;2.37;;;2.03;;
12871;SDS011;6504;53.766;9.626;2023-06-22T09:00:06;2.30;;;2.07;;
12871;SDS011;6504;53.766;9.626;2023-06-22T09:02:43;2.30;;;2.10;;
12871;SDS011;6504;53.766;9.626;2023-06-22T09:05:13;3.50;;;2.40;;
12871;SDS011;6504;53.766;9.626;2023-06-22T09:07:42;3.00;;;2.47;;
12871;SDS011;6504;53.766;9.626;2023-06-22T09:10:10;3.17;;;2.40;;
12871;SDS011;6504;53.766;9.626;2023-06-22T09:12:39;2.20;;;1.97;;
12871;SDS011;6504;53.766;9.626;2023-06-22T09:15:07;3.53;;;2.47;;
12871;SDS011;6504;53.766;9.626;2023-06-22T09:17:42;3.67;;;2.20;;
12871;SDS011;6504;53.766;9.626;2023-06-22T09:20:11;2.53;;;2.30;;
12871;SDS011;6504;53.766;9.626;2023-06-22T09:22:40;2.53;;;2.33;;
12871;SDS011;6504;53.766;9.626;2023-06-22T09:25:09;3.03;;;2.70;;
12871;SDS011;6504;53.766;9.626;2023-06-22T09:27:37;2.50;;;2.30;;
12871;SDS011;6504;53.766;9.626;2023-06-22T09:30:05;2.50;;;2.30;;
12871;SDS011;6504;53.766;9.626;2023-06-22T09:32:34;2.30;;;2.10;;
12871;SDS011;6504;53.766;9.626;2023-06-22T09:35:04;2.60;;;2.13;;
12871;SDS011;6504;53.766;9.626;2023-06-22T09:37:33;3.77;;;2.50;;
12871;SDS011;6504;53.766;9.626;2023-06-22T09:40:03;3.57;;;2.70;;
12871;SDS011;6504;53.766;9.626;2023-06-22T09:42:35;3.00;;;2.70;;
12871;SDS011;6504;53.766;9.626;2023-06-22T09:45:03;3.10;;;2.70;;
12871;SDS011;6504;53.766;9.626;2023-06-22T09:47:32;4.17;;;2.70;;
12871;SDS011;6504;53.766;9.626;2023-06-22T09:50:00;3.73;;;2.40;;
12871;SDS011;6504;53.766;9.626;2023-06-22T09:52:28;3.70;;;2.70;;
12871;SDS011;6504;53.766;9.626;2023-06-22T09:55:14;2.70;;;2.27;;
12871;SDS011;6504;53.766;9.626;2023-06-22T09:57:43;2.93;;;2.30;;
12871;SDS011;6504;53.766;9.626;2023-06-22T10:00:11;3.30;;;2.80;;
12871;SDS011;6504;53.766;9.626;2023-06-22T10:02:41;3.70;;;3.00;;
12871;SDS011;6504;53.766;9.626;2023-06-22T10:05:10;3.07;;;2.77;;
12871;SDS011;6504;53.766;9.626;2023-06-22T10:07:39;3.13;;;2.80;;
12871;SDS011;6504;53.766;9.626;2023-06-22T10:10:10;3.60;;;2.87;;
12871;SDS011;6504;53.766;9.626;2023-06-22T10:12:42;3.43;;;2.57;;
12871;SDS011;6504;53.766;9.626;2023-06-22T10:15:13;4.40;;;3.10;;
12871;SDS011;6504;53.766;9.626;2023-06-22T10:17:42;3.83;;;2.97;;
12871;SDS011;6504;53.766;9.626;2023-06-22T10:20:10;3.47;;;2.90;;
12871;SDS011;6504;53.766;9.626;2023-06-22T10:22:39;2.93;;;2.63;;
12871;SDS011;6504;53.766;9.626;2023-06-22T10:25:08;4.00;;;3.20;;
12871;SDS011;6504;53.766;9.626;2023-06-22T10:27:36;3.70;;;3.30;;
12871;SDS011;6504;53.766;9.626;2023-06-22T10:30:08;4.70;;;3.30;;
12871;SDS011;6504;53.766;9.626;2023-06-22T10:32:39;3.90;;;2.80;;
12871;SDS011;6504;53.766;9.626;2023-06-22T10:35:08;4.40;;;3.13;;
12871;SDS011;6504;53.766;9.626;2023-06-22T10:37:39;3.87;;;3.20;;
12871;SDS011;6504;53.766;9.626;2023-06-22T10:40:10;3.63;;;2.90;;
12871;SDS011;6504;53.766;9.626;2023-06-22T10:42:39;4.23;;;2.90;;
12871;SDS011;6504;53.766;9.626;2023-06-22T10:45:09;3.63;;;3.23;;
12871;SDS011;6504;53.766;9.626;2023-06-22T10:47:38;3.10;;;2.80;;
12871;SDS011;6504;53.766;9.626;2023-06-22T10:50:11;3.77;;;2.80;;
12871;SDS011;6504;53.766;9.626;2023-06-22T10:52:40;3.70;;;2.70;;
12871;SDS011;6504;53.766;9.626;2023-06-22T10:55:09;3.30;;;2.80;;
12871;SDS011;6504;53.766;9.626;2023-06-22T10:57:37;4.20;;;3.17;;
12871;SDS011;6504;53.766;9.626;2023-06-22T11:00:11;3.20;;;2.90;;
12871;SDS011;6504;53.766;9.626;2023-06-22T11:02:40;3.23;;;2.87;;
12871;SDS011;6504;53.766;9.626;2023-06-22T11:05:09;4.10;;;3.70;;
12871;SDS011;6504;53.766;9.626;2023-06-22T11:07:37;3.43;;;3.10;;
12871;SDS011;6504;53.766;9.626;2023-06-22T11:10:09;3.43;;;2.80;;
12871;SDS011;6504;53.766;9.626;2023-06-22T11:12:37;4.27;;;3.10;;
12871;SDS011;6504;53.766;9.626;2023-06-22T11:15:06;5.37;;;3.00;;
12871;SDS011;6504;53.766;9.626;2023-06-22T11:17:36;3.30;;;3.00;;
12871;SDS011;6504;53.766;9.626;2023-06-22T11:20:05;3.90;;;3.50;;
12871;SDS011;6504;53.766;9.626;2023-06-22T11:22:37;4.10;;;3.70;;
12871;SDS011;6504;53.766;9.626;2023-06-22T11:25:06;4.00;;;3.60;;
12871;SDS011;6504;53.766;9.626;2023-06-22T11:27:34;3.97;;;3.20;;
12871;SDS011;6504;53.766;9.626;2023-06-22T11:30:02;3.33;;;3.03;;
12871;SDS011;6504;53.766;9.626;2023-06-22T11:32:31;4.63;;;3.93;;
12871;SDS011;6504;53.766;9.626;2023-06-22T11:35:01;3.80;;;3.30;;
12871;SDS011;6504;53.766;9.626;2023-06-22T11:37:29;6.53;;;3.80;;
12871;SDS011;6504;53.766;9.626;2023-06-22T11:39:57;4.30;;;3.70;;
12871;SDS011;6504;53.766;9.626;2023-06-22T11:42:33;3.67;;;3.37;;
12871;SDS011;6504;53.766;9.626;2023-06-22T11:45:01;5.43;;;3.50;;
12871;SDS011;6504;53.766;9.626;2023-06-22T11:47:31;4.10;;;3.70;;
12871;SDS011;6504;53.766;9.626;2023-06-22T11:49:59;4.63;;;3.40;;
12871;SDS011;6504;53.766;9.626;2023-06-22T11:52:28;3.70;;;2.97;;
12871;SDS011;6504;53.766;9.626;2023-06-22T11:54:56;4.60;;;3.37;;
12871;SDS011;6504;53.766;9.626;2023-06-22T11:57:25;3.73;;;3.43;;
12871;SDS011;6504;53.766;9.626;2023-06-22T11:59:53;4.40;;;4.00;;
12871;SDS011;6504;53.766;9.626;2023-06-22T12:02:21;4.07;;;3.50;;
12871;SDS011;6504;53.766;9.626;2023-06-22T12:04:50;5.20;;;3.50;;
12871;SDS011;6504;53.766;9.626;2023-06-22T12:07:21;4.87;;;4.33;;
12871;SDS011;6504;53.766;9.626;2023-06-22T12:09:50;5.07;;;4.67;;
12871;SDS011;6504;53.766;9.626;2023-06-22T12:12:18;4.50;;;4.20;;
12871;SDS011;6504;53.766;9.626;2023-06-22T12:14:46;4.67;;;4.03;;
12871;SDS011;6504;53.766;9.626;2023-06-22T12:17:14;4.20;;;3.60;;
12871;SDS011;6504;53.766;9.626;2023-06-22T12:19:42;4.37;;;4.00;;
12871;SDS011;6504;53.766;9.626;2023-06-22T12:22:10;4.50;;;4.10;;
12871;SDS011;6504;53.766;9.626;2023-06-22T12:24:38;4.07;;;3.70;;
12871;SDS011;6504;53.766;9.626;2023-06-22T12:27:08;5.40;;;4.20;;
12871;SDS011;6504;53.766;9.626;2023-06-22T12:29:36;4.27;;;3.77;;
12871;SDS011;6504;53.766;9.626;2023-06-22T12:32:04;4.30;;;3.90;;
12871;SDS011;6504;53.766;9.626;2023-06-22T12:34:33;3.57;;;3.30;;
12871;SDS011;6504;53.766;9.626;2023-06-22T12:37:01;4.47;;;3.93;;
12871;SDS011;6504;53.766;9.626;2023-06-22T12:39:30;5.63;;;4.67;;
12871;SDS011;6504;53.766;9.626;2023-06-22T12:41:58;4.23;;;3.60;;
12871;SDS011;6504;53.766;9.626;2023-06-22T12:44:28;4.97;;;3.90;;
12871;SDS011;6504;53.766;9.626;2023-06-22T12:46:56;5.00;;;4.30;;
12871;SDS011;6504;53.766;9.626;2023-06-22T12:49:24;3.80;;;3.50;;
12871;SDS011;6504;53.766;9.626;2023-06-22T12:51:52;4.73;;;4.23;;
12871;SDS011;6504;53.766;9.626;2023-06-22T12:54:20;4.10;;;3.70;;
12871;SDS011;6504;53.766;9.626;2023-06-22T12:56:49;5.20;;;4.40;;
12871;SDS011;6504;53.766;9.626;2023-06-22T12:59:20;4.30;;;3.93;;
12871;SDS011;6504;53.766;9.626;2023-06-22T13:01:49;5.60;;;4.27;;
12871;SDS011;6504;53.766;9.626;2023-06-22T13:04:17;4.63;;;4.20;;
12871;SDS011;6504;53.766;9.626;2023-06-22T13:06:45;4.10;;;3.80;;
12871;SDS011;6504;53.766;9.626;2023-06-22T13:09:15;4.80;;;4.40;;
12871;SDS011;6504;53.766;9.626;2023-06-22T13:11:47;4.27;;;3.97;;
12871;SDS011;6504;53.766;9.626;2023-06-22T13:14:15;4.60;;;4.07;;
12871;SDS011;6504;53.766;9.626;2023-06-22T13:16:43;4.17;;;3.87;;
12871;SDS011;6504;53.766;9.626;2023-06-22T13:19:13;4.73;;;4.33;;
12871;SDS011;6504;53.766;9.626;2023-06-22T13:21:41;4.83;;;4.43;;
12871;SDS011;6504;53.766;9.626;2023-06-22T13:24:09;4.37;;;3.93;;
12871;SDS011;6504;53.766;9.626;2023-06-22T13:26:37;4.80;;;4.40;;
12871;SDS011;6504;53.766;9.626;2023-06-22T13:29:06;4.50;;;4.10;;
12871;SDS011;6504;53.766;9.626;2023-06-22T13:31:34;5.00;;;4.50;;
12871;SDS011;6504;53.766;9.626;2023-06-22T13:34:02;5.07;;;4.67;;
12871;SDS011;6504;53.766;9.626;2023-06-22T13:36:31;5.17;;;4.40;;
12871;SDS011;6504;53.766;9.626;2023-06-22T13:38:59;4.60;;;4.20;;
12871;SDS011;6504;53.766;9.626;2023-06-22T13:41:27;4.93;;;4.43;;
12871;SDS011;6504;53.766;9.626;2023-06-22T13:43:55;4.87;;;4.47;;
12871;SDS011;6504;53.766;9.626;2023-06-22T13:46:23;4.70;;;4.30;;
12871;SDS011;6504;53.766;9.626;2023-06-22T13:48:52;4.70;;;4.30;;
12871;SDS011;6504;53.766;9.626;2023-06-22T13:51:22;5.57;;;4.67;;
12871;SDS011;6504;53.766;9.626;2023-06-22T13:53:51;4.97;;;4.30;;
12871;SDS011;6504;53.766;9.626;2023-06-22T13:56:20;5.47;;;4.50;;
12871;SDS011;6504;53.766;9.626;2023-06-22T13:58:49;4.53;;;4.13;;
12871;SDS011;6504;53.766;9.626;2023-06-22T14:01:17;4.50;;;4.20;;
12871;SDS011;6504;53.766;9.626;2023-06-22T14:03:45;4.83;;;4.43;;
12871;SDS011;6504;53.766;9.626;2023-06-22T14:06:13;5.80;;;4.50;;
12871;SDS011;6504;53.766;9.626;2023-06-22T14:08:41;4.93;;;4.53;;
12871;SDS011;6504;53.766;9.626;2023-06-22T14:11:11;4.70;;;4.33;;
12871;SDS011;6504;53.766;9.626;2023-06-22T14:13:40;4.63;;;4.27;;
12871;SDS011;6504;53.766;9.626;2023-06-22T14:16:09;4.43;;;4.13;;
12871;SDS011;6504;53.766;9.626;2023-06-22T14:18:37;4.47;;;4.10;;
12871;SDS011;6504;53.766;9.626;2023-06-22T14:21:05;4.87;;;4.00;;
12871;SDS011;6504;53.766;9.626;2023-06-22T14:23:33;4.73;;;4.30;;
12871;SDS011;6504;53.766;9.626;2023-06-22T14:26:01;4.40;;;4.00;;
12871;SDS011;6504;53.766;9.626;2023-06-22T14:28:30;4.17;;;3.80;;
12871;SDS011;6504;53.766;9.626;2023-06-22T14:30:58;4.67;;;4.20;;
12871;SDS011;6504;53.766;9.626;2023-06-22T14:33:27;4.40;;;4.10;;
12871;SDS011;6504;53.766;9.626;2023-06-22T14:35:55;4.60;;;4.20;;
12871;SDS011;6504;53.766;9.626;2023-06-22T14:38:23;4.47;;;4.17;;
12871;SDS011;6504;53.766;9.626;2023-06-22T14:40:51;4.97;;;4.47;;
12871;SDS011;6504;53.766;9.626;2023-06-22T14:43:42;4.67;;;4.27;;
12871;SDS011;6504;53.766;9.626;2023-06-22T14:46:12;4.23;;;3.80;;
12871;SDS011;6504;53.766;9.626;2023-06-22T14:48:40;4.50;;;4.10;;
12871;SDS011;6504;53.766;9.626;2023-06-22T14:51:08;5.23;;;4.77;;
12871;SDS011;6504;53.766;9.626;2023-06-22T14:53:41;4.00;;;3.60;;
12871;SDS011;6504;53.766;9.626;2023-06-22T14:56:09;5.00;;;4.50;;
12871;SDS011;6504;53.766;9.626;2023-06-22T14:58:41;5.03;;;4.53;;
12871;SDS011;6504;53.766;9.626;2023-06-22T15:01:12;4.07;;;3.77;;
12871;SDS011;6504;53.766;9.626;2023-06-22T15:03:40;4.50;;;4.20;;
12871;SDS011;6504;53.766;9.626;2023-06-22T15:06:09;4.83;;;4.13;;
12871;SDS011;6504;53.766;9.626;2023-06-22T15:08:37;4.40;;;4.00;;